createdAt,value
2023-04-17T00:02:10.910Z,10.78
2023-04-17T00:04:41.173Z,10.70
2023-04-17T00:07:09.561Z,10.62
2023-04-17T00:09:37.654Z,10.54
2023-04-17T00:12:06.000Z,10.45
2023-04-17T00:14:34.050Z,10.36
2023-04-17T00:17:02.056Z,10.32
2023-04-17T00:19:30.073Z,10.31
2023-04-17T00:21:58.241Z,10.31
2023-04-17T00:24:26.246Z,10.30
2023-04-17T00:26:54.246Z,10.26
2023-04-17T00:29:22.288Z,10.20
2023-04-17T00:31:50.314Z,10.13
2023-04-17T00:34:18.350Z,10.05
2023-04-17T00:36:46.387Z,9.99
2023-04-17T00:39:15.658Z,9.90
2023-04-17T00:41:43.586Z,9.82
2023-04-17T00:44:11.762Z,9.74
2023-04-17T00:46:41.265Z,9.71
2023-04-17T00:49:10.868Z,9.66
2023-04-17T00:51:40.451Z,9.73
2023-04-17T00:54:08.555Z,9.76
2023-04-17T00:56:36.814Z,9.77
2023-04-17T00:59:07.397Z,9.76
2023-04-17T01:01:35.717Z,9.72
2023-04-17T01:04:05.568Z,9.68
2023-04-17T01:06:33.792Z,9.65
2023-04-17T01:09:02.314Z,9.59
2023-04-17T01:11:30.492Z,9.55
2023-04-17T01:13:58.649Z,9.50
2023-04-17T01:16:27.761Z,9.46
2023-04-17T01:18:56.444Z,9.44
2023-04-17T01:21:27.769Z,9.46
2023-04-17T01:23:56.390Z,9.49
2023-04-17T01:26:32.420Z,9.51
2023-04-17T01:29:00.548Z,9.50
2023-04-17T01:31:30.286Z,9.49
2023-04-17T01:34:00.625Z,9.46
2023-04-17T01:36:29.469Z,9.42
2023-04-17T01:38:57.395Z,9.36
2023-04-17T01:41:25.489Z,9.32
2023-04-17T01:43:53.432Z,9.28
2023-04-17T01:46:21.472Z,9.27
2023-04-17T01:48:50.713Z,9.30
2023-04-17T01:51:18.663Z,9.34
2023-04-17T01:53:46.828Z,9.40
2023-04-17T01:56:14.779Z,9.42
2023-04-17T01:58:43.342Z,9.42
2023-04-17T02:01:11.451Z,9.39
2023-04-17T02:03:39.828Z,9.35
2023-04-17T02:06:08.002Z,9.30
2023-04-17T02:08:36.045Z,9.25
2023-04-17T02:11:04.918Z,9.18
2023-04-17T02:13:35.449Z,9.11
2023-04-17T02:16:04.504Z,9.07
2023-04-17T02:18:32.558Z,9.08
2023-04-17T02:21:01.618Z,9.10
2023-04-17T02:23:29.662Z,9.12
2023-04-17T02:25:58.038Z,9.13
2023-04-17T02:28:26.331Z,9.13
2023-04-17T02:30:54.467Z,9.09
2023-04-17T02:33:22.765Z,9.03
2023-04-17T02:35:51.478Z,8.93
2023-04-17T02:38:21.960Z,8.82
2023-04-17T02:40:49.920Z,8.71
2023-04-17T02:43:18.257Z,8.66
2023-04-17T02:45:46.609Z,8.63
2023-04-17T02:48:15.515Z,8.64
2023-04-17T02:50:43.931Z,8.66
2023-04-17T02:53:16.034Z,8.67
2023-04-17T02:55:47.160Z,8.69
2023-04-17T02:58:15.870Z,8.69
2023-04-17T03:00:44.063Z,8.67
2023-04-17T03:03:15.834Z,8.63
2023-04-17T03:05:44.133Z,8.56
2023-04-17T03:08:12.280Z,8.47
2023-04-17T03:10:47.592Z,8.39
2023-04-17T03:13:15.657Z,8.36
2023-04-17T03:15:43.868Z,8.36
2023-04-17T03:18:11.871Z,8.39
2023-04-17T03:20:39.928Z,8.43
2023-04-17T03:23:08.149Z,8.48
2023-04-17T03:25:36.354Z,8.47
2023-04-17T03:28:04.846Z,8.42
2023-04-17T03:30:34.155Z,8.37
2023-04-17T03:33:05.529Z,8.31
2023-04-17T03:35:33.656Z,8.25
2023-04-17T03:38:01.977Z,8.20
2023-04-17T03:40:30.709Z,8.18
2023-04-17T03:43:01.440Z,8.18
2023-04-17T03:45:30.866Z,8.20
2023-04-17T03:47:59.276Z,8.22
2023-04-17T03:50:27.718Z,8.25
2023-04-17T03:52:57.404Z,8.27
2023-04-17T03:55:27.178Z,8.30
2023-04-17T03:57:55.659Z,8.31
2023-04-17T04:00:24.864Z,8.29
2023-04-17T04:02:56.397Z,8.25
2023-04-17T04:05:28.210Z,8.19
2023-04-17T04:07:56.841Z,8.16
2023-04-17T04:10:32.688Z,8.16
2023-04-17T04:13:04.185Z,8.14
2023-04-17T04:15:32.875Z,8.10
2023-04-17T04:18:03.196Z,8.05
2023-04-17T04:20:32.390Z,8.00
2023-04-17T04:23:13.894Z,7.96
2023-04-17T04:25:43.698Z,7.90
2023-04-17T04:28:41.942Z,7.80
2023-04-17T04:31:18.814Z,7.76
2023-04-17T04:33:55.299Z,7.75
2023-04-17T04:36:25.079Z,7.79
2023-04-17T04:39:05.827Z,7.85
2023-04-17T04:41:36.496Z,7.90
2023-04-17T04:44:06.154Z,7.91
2023-04-17T04:46:35.791Z,7.93
2023-04-17T04:49:04.030Z,7.95
2023-04-17T04:51:33.902Z,7.94
2023-04-17T04:54:02.413Z,7.91
2023-04-17T04:56:32.910Z,7.86
2023-04-17T04:59:01.453Z,7.80
2023-04-17T05:01:31.292Z,7.79
2023-04-17T05:03:59.527Z,7.84
2023-04-17T05:06:29.589Z,7.88
2023-04-17T05:09:00.889Z,7.93
2023-04-17T05:11:29.723Z,7.94
2023-04-17T05:13:57.687Z,7.95
2023-04-17T05:16:29.050Z,7.96
2023-04-17T05:18:57.266Z,7.91
2023-04-17T05:21:38.596Z,7.85
2023-04-17T05:24:07.022Z,7.77
2023-04-17T05:26:35.198Z,7.68
2023-04-17T05:29:03.923Z,7.60
2023-04-17T05:31:32.541Z,7.54
2023-04-17T05:34:01.202Z,7.50
2023-04-17T05:36:31.592Z,7.49
2023-04-17T05:39:00.154Z,7.49
2023-04-17T05:41:30.756Z,7.50
2023-04-17T05:43:58.656Z,7.50
2023-04-17T05:46:26.806Z,7.49
2023-04-17T05:48:55.259Z,7.46
2023-04-17T05:51:24.369Z,7.42
2023-04-17T05:53:53.052Z,7.44
2023-04-17T05:56:21.732Z,7.49
2023-04-17T05:58:50.559Z,7.55
2023-04-17T06:01:22.715Z,7.61
2023-04-17T06:03:53.616Z,7.72
2023-04-17T06:06:24.884Z,7.81
2023-04-17T06:08:54.569Z,7.86
2023-04-17T06:11:24.400Z,7.92
2023-04-17T06:13:52.562Z,7.98
2023-04-17T06:16:20.569Z,8.04
2023-04-17T06:18:49.280Z,8.09
2023-04-17T06:21:17.390Z,8.11
2023-04-17T06:23:46.489Z,8.20
2023-04-17T06:26:17.954Z,8.30
2023-04-17T06:28:45.935Z,8.46
2023-04-17T06:31:14.888Z,8.64
2023-04-17T06:33:43.887Z,8.79
2023-04-17T06:36:12.196Z,8.99
2023-04-17T06:38:47.144Z,9.16
2023-04-17T06:41:16.485Z,9.18
2023-04-17T06:43:44.695Z,9.14
2023-04-17T06:46:16.339Z,9.13
2023-04-17T06:48:44.414Z,9.10
2023-04-17T06:51:12.492Z,9.10
2023-04-17T06:53:40.633Z,9.07
2023-04-17T06:56:08.641Z,9.03
2023-04-17T06:58:42.520Z,9.04
2023-04-17T07:01:11.690Z,9.10
2023-04-17T07:03:41.521Z,9.21
2023-04-17T07:06:09.963Z,9.32
2023-04-17T07:08:37.982Z,9.39
2023-04-17T07:11:06.345Z,9.48
2023-04-17T07:13:34.388Z,9.58
2023-04-17T07:16:03.988Z,9.68
2023-04-17T07:18:32.115Z,9.73
2023-04-17T07:21:00.229Z,9.78
2023-04-17T07:23:28.598Z,9.82
2023-04-17T07:25:56.501Z,9.88
2023-04-17T07:28:25.222Z,9.95
2023-04-17T07:30:55.241Z,10.05
2023-04-17T07:33:23.160Z,10.19
2023-04-17T07:35:51.490Z,10.33
2023-04-17T07:38:19.693Z,10.45
2023-04-17T07:40:47.712Z,10.55
2023-04-17T07:43:16.831Z,10.62
2023-04-17T07:45:45.193Z,10.68
2023-04-17T07:48:13.361Z,10.74
2023-04-17T07:50:41.955Z,10.78
2023-04-17T07:53:10.023Z,10.85
2023-04-17T07:55:38.087Z,10.94
2023-04-17T07:58:06.605Z,11.03
2023-04-17T08:00:35.159Z,11.12
2023-04-17T08:03:03.406Z,11.24
2023-04-17T08:05:32.316Z,11.35
2023-04-17T08:08:01.223Z,11.44
2023-04-17T08:10:29.234Z,11.51
2023-04-17T08:12:57.250Z,11.58
2023-04-17T08:15:25.209Z,11.67
2023-04-17T08:17:53.343Z,11.77
2023-04-17T08:20:22.187Z,11.84
2023-04-17T08:22:50.664Z,11.94
2023-04-17T08:25:18.941Z,12.05
2023-04-17T08:27:47.336Z,12.15
2023-04-17T08:30:18.760Z,12.22
2023-04-17T08:32:50.239Z,12.33
2023-04-17T08:35:18.305Z,12.48
2023-04-17T08:37:47.006Z,12.65
2023-04-17T08:40:17.187Z,12.78
2023-04-17T08:42:48.133Z,12.89
2023-04-17T08:45:17.536Z,12.94
2023-04-17T08:47:45.586Z,12.96
2023-04-17T08:50:18.877Z,13.00
2023-04-17T08:52:49.289Z,13.08
2023-04-17T08:55:20.183Z,13.14
2023-04-17T08:57:54.730Z,13.16
2023-04-17T09:00:31.801Z,13.22
2023-04-17T09:03:02.141Z,13.31
2023-04-17T09:05:35.245Z,13.45
2023-04-17T09:08:06.678Z,13.58
2023-04-17T09:10:45.562Z,13.67
2023-04-17T09:13:15.844Z,13.85
2023-04-17T09:15:46.070Z,14.05
2023-04-17T09:18:27.539Z,14.26
2023-04-17T09:20:57.747Z,14.47
2023-04-17T09:23:27.416Z,14.68
2023-04-17T09:26:08.807Z,14.87
2023-04-17T09:28:39.926Z,15.01
2023-04-17T09:31:28.326Z,15.14
2023-04-17T09:34:01.417Z,15.37
2023-04-17T09:36:31.485Z,15.52
2023-04-17T09:39:03.671Z,15.63
2023-04-17T09:41:39.406Z,15.68
2023-04-17T09:44:07.904Z,15.77
2023-04-17T09:46:39.014Z,15.69
2023-04-17T09:49:19.093Z,15.59
2023-04-17T09:51:47.056Z,15.59
2023-04-17T09:54:16.721Z,15.67
2023-04-17T09:56:46.079Z,15.81
2023-04-17T09:59:16.274Z,15.98
2023-04-17T10:01:45.307Z,16.17
2023-04-17T10:04:14.205Z,16.38
2023-04-17T10:06:43.065Z,16.53
2023-04-17T10:09:11.262Z,16.64
2023-04-17T10:11:45.248Z,16.75
2023-04-17T10:14:26.692Z,16.79
2023-04-17T10:16:54.852Z,16.83
2023-04-17T10:19:33.117Z,16.89
2023-04-17T10:22:16.569Z,16.89
2023-04-17T10:24:54.450Z,16.86
2023-04-17T10:27:28.333Z,16.91
2023-04-17T10:30:05.029Z,17.02
2023-04-17T10:32:34.431Z,17.05
2023-04-17T10:35:22.474Z,17.08
2023-04-17T10:37:50.361Z,17.09
2023-04-17T10:40:21.472Z,17.13
2023-04-17T10:43:02.052Z,17.16
2023-04-17T10:45:51.895Z,17.16
2023-04-17T10:48:39.184Z,17.20
2023-04-17T10:51:27.925Z,17.23
2023-04-17T10:54:00.239Z,17.16
2023-04-17T10:56:49.279Z,17.12
2023-04-17T10:59:19.289Z,17.22
2023-04-17T11:01:50.286Z,17.35
2023-04-17T11:04:23.824Z,17.35
2023-04-17T11:06:55.790Z,17.43
2023-04-17T11:09:26.777Z,17.52
2023-04-17T11:11:55.586Z,17.63
2023-04-17T11:14:23.667Z,17.82
2023-04-17T11:16:52.182Z,17.97
2023-04-17T11:19:23.169Z,18.10
2023-04-17T11:21:53.765Z,18.08
2023-04-17T11:24:32.294Z,17.96
2023-04-17T11:27:02.144Z,17.95
2023-04-17T11:29:30.539Z,17.91
2023-04-17T11:32:01.042Z,17.92
2023-04-17T11:34:30.441Z,17.96
2023-04-17T11:37:01.062Z,18.03
2023-04-17T11:39:31.328Z,18.13
2023-04-17T11:41:59.790Z,18.19
2023-04-17T11:44:28.980Z,18.23
2023-04-17T11:47:00.757Z,18.25
2023-04-17T11:49:31.680Z,18.27
2023-04-17T11:52:01.540Z,18.28
2023-04-17T11:54:37.302Z,18.26
2023-04-17T11:57:14.983Z,18.26
2023-04-17T11:59:44.965Z,18.28
2023-04-17T12:02:13.466Z,18.22
2023-04-17T12:04:41.687Z,18.33
2023-04-17T12:07:23.822Z,18.49
2023-04-17T12:09:58.334Z,18.57
2023-04-17T12:12:26.452Z,18.49
2023-04-17T12:14:54.581Z,18.33
2023-04-17T12:17:22.522Z,18.18
2023-04-17T12:19:51.133Z,18.17
2023-04-17T12:22:19.407Z,18.29
2023-04-17T12:24:49.741Z,18.44
2023-04-17T12:27:17.802Z,18.46
2023-04-17T12:29:46.076Z,18.46
2023-04-17T12:32:16.210Z,18.49
2023-04-17T12:34:44.268Z,18.61
2023-04-17T12:37:12.247Z,18.73
2023-04-17T12:39:40.217Z,18.80
2023-04-17T12:42:08.291Z,18.83
2023-04-17T12:44:36.400Z,18.92
2023-04-17T12:47:04.632Z,19.02
2023-04-17T12:49:32.984Z,19.18
2023-04-17T12:52:03.251Z,19.09
2023-04-17T12:54:31.956Z,18.92
2023-04-17T12:56:59.990Z,18.97
2023-04-17T12:59:27.877Z,19.03
2023-04-17T13:01:56.292Z,19.12
2023-04-17T13:04:24.843Z,19.30
2023-04-17T13:06:52.981Z,19.47
2023-04-17T13:09:21.256Z,19.56
2023-04-17T13:11:49.326Z,19.39
2023-04-17T13:14:17.293Z,19.21
2023-04-17T13:16:46.301Z,19.00
2023-04-17T13:19:14.640Z,18.95
2023-04-17T13:21:43.048Z,18.92
2023-04-17T13:24:14.819Z,18.92
2023-04-17T13:26:43.822Z,19.04
2023-04-17T13:29:12.079Z,19.00
2023-04-17T13:31:40.867Z,18.92
2023-04-17T13:34:11.084Z,18.96
2023-04-17T13:36:39.047Z,18.95
2023-04-17T13:39:07.127Z,18.82
2023-04-17T13:41:38.991Z,18.58
2023-04-17T13:44:07.050Z,18.55
2023-04-17T13:46:35.743Z,18.59
2023-04-17T13:49:03.849Z,18.58
2023-04-17T13:51:31.867Z,18.57
2023-04-17T13:54:00.261Z,18.62
2023-04-17T13:56:28.637Z,18.76
2023-04-17T13:58:57.625Z,18.90
2023-04-17T14:01:26.026Z,18.93
2023-04-17T14:03:54.480Z,18.91
2023-04-17T14:06:22.647Z,18.90
2023-04-17T14:08:50.739Z,18.96
2023-04-17T14:11:19.531Z,18.96
2023-04-17T14:13:47.795Z,18.99
2023-04-17T14:16:15.815Z,19.01
2023-04-17T14:18:43.837Z,18.98
2023-04-17T14:21:11.769Z,19.00
2023-04-17T14:23:39.634Z,18.93
2023-04-17T14:26:07.829Z,18.86
2023-04-17T14:28:36.041Z,18.78
2023-04-17T14:31:04.866Z,18.77
2023-04-17T14:33:32.856Z,18.74
2023-04-17T14:36:00.890Z,18.74
2023-04-17T14:38:28.919Z,18.72
2023-04-17T14:40:56.874Z,18.73
2023-04-17T14:43:25.064Z,18.70
2023-04-17T14:45:53.051Z,18.63
2023-04-17T14:48:21.203Z,18.63
2023-04-17T14:50:49.891Z,18.67
2023-04-17T14:53:19.459Z,18.71
2023-04-17T14:55:49.830Z,18.75
2023-04-17T14:58:17.844Z,18.72
2023-04-17T15:00:46.433Z,18.74
2023-04-17T15:03:14.596Z,18.69
2023-04-17T15:05:43.232Z,18.59
2023-04-17T15:08:11.527Z,18.55
2023-04-17T15:10:50.729Z,18.57
2023-04-17T15:13:19.018Z,18.55
2023-04-17T15:15:46.981Z,18.46
2023-04-17T15:18:14.857Z,18.38
2023-04-17T15:20:42.830Z,18.37
2023-04-17T15:23:10.799Z,18.32
2023-04-17T15:25:39.157Z,18.32
2023-04-17T15:28:07.767Z,18.33
2023-04-17T15:30:36.026Z,18.25
2023-04-17T15:33:04.517Z,18.21
2023-04-17T15:35:32.585Z,18.23
2023-04-17T15:38:00.648Z,18.23
2023-04-17T15:40:28.730Z,18.17
2023-04-17T15:42:57.388Z,18.04
2023-04-17T15:45:26.385Z,17.94
2023-04-17T15:47:54.631Z,17.82
2023-04-17T15:50:23.059Z,17.75
2023-04-17T15:52:51.024Z,17.75
2023-04-17T15:55:19.203Z,17.72
2023-04-17T15:57:47.163Z,17.68
2023-04-17T16:00:15.722Z,17.66
2023-04-17T16:02:47.691Z,17.63
2023-04-17T16:05:17.071Z,17.55
2023-04-17T16:07:45.749Z,17.48
2023-04-17T16:10:14.686Z,17.42
2023-04-17T16:12:44.154Z,17.33
2023-04-17T16:15:18.830Z,17.25
2023-04-17T16:17:48.808Z,17.22
2023-04-17T16:20:17.210Z,17.21
2023-04-17T16:22:45.244Z,17.18
2023-04-17T16:25:13.457Z,17.12
2023-04-17T16:27:41.551Z,17.07
2023-04-17T16:30:10.245Z,17.05
2023-04-17T16:32:38.267Z,17.04
2023-04-17T16:35:07.337Z,17.03
2023-04-17T16:37:35.423Z,16.95
2023-04-17T16:40:05.207Z,16.83
2023-04-17T16:42:33.462Z,16.73
2023-04-17T16:45:01.694Z,16.68
2023-04-17T16:47:30.242Z,16.65
2023-04-17T16:49:58.518Z,16.60
2023-04-17T16:52:26.654Z,16.53
2023-04-17T16:54:54.613Z,16.45
2023-04-17T16:57:22.483Z,16.36
2023-04-17T16:59:50.389Z,16.28
2023-04-17T17:02:18.397Z,16.17
2023-04-17T17:04:46.625Z,16.05
2023-04-17T17:07:15.273Z,15.91
2023-04-17T17:09:43.349Z,15.77
2023-04-17T17:12:11.635Z,15.68
2023-04-17T17:14:39.683Z,15.58
2023-04-17T17:17:07.975Z,15.53
2023-04-17T17:19:36.073Z,15.49
2023-04-17T17:22:04.110Z,15.41
2023-04-17T17:24:32.392Z,15.36
2023-04-17T17:27:00.734Z,15.29
2023-04-17T17:29:28.809Z,15.19
2023-04-17T17:31:56.898Z,15.10
2023-04-17T17:34:27.034Z,15.01
2023-04-17T17:36:55.537Z,14.92
2023-04-17T17:39:23.688Z,14.84
2023-04-17T17:41:51.768Z,14.77
2023-04-17T17:44:19.933Z,14.73
2023-04-17T17:46:47.891Z,14.63
2023-04-17T17:49:15.922Z,14.57
2023-04-17T17:51:44.638Z,14.52
2023-04-17T17:54:13.052Z,14.46
2023-04-17T17:56:41.432Z,14.40
2023-04-17T17:59:09.410Z,14.33
2023-04-17T18:01:37.535Z,14.23
2023-04-17T18:04:05.956Z,14.12
2023-04-17T18:06:34.148Z,14.03
2023-04-17T18:09:02.651Z,13.92
2023-04-17T18:11:30.678Z,13.83
2023-04-17T18:14:00.660Z,13.76
2023-04-17T18:16:32.869Z,13.66
2023-04-17T18:19:03.421Z,13.58
2023-04-17T18:21:32.107Z,13.47
2023-04-17T18:24:00.317Z,13.37
2023-04-17T18:26:28.658Z,13.29
2023-04-17T18:28:56.636Z,13.21
2023-04-17T18:31:26.442Z,13.12
2023-04-17T18:33:54.751Z,13.02
2023-04-17T18:36:22.634Z,12.93
2023-04-17T18:38:50.583Z,12.82
2023-04-17T18:41:19.033Z,12.73
2023-04-17T18:43:47.106Z,12.63
2023-04-17T18:46:15.095Z,12.53
2023-04-17T18:48:43.043Z,12.41
2023-04-17T18:51:14.579Z,12.34
2023-04-17T18:53:42.671Z,12.29
2023-04-17T18:56:13.763Z,12.24
2023-04-17T18:58:42.051Z,12.21
2023-04-17T19:01:10.721Z,12.15
2023-04-17T19:03:39.727Z,12.05
2023-04-17T19:06:07.907Z,11.97
2023-04-17T19:08:36.499Z,11.86
2023-04-17T19:11:04.954Z,11.74
2023-04-17T19:13:32.955Z,11.63
2023-04-17T19:16:01.058Z,11.54
2023-04-17T19:18:29.330Z,11.46
2023-04-17T19:20:57.341Z,11.40
2023-04-17T19:23:25.819Z,11.34
2023-04-17T19:25:58.014Z,11.27
2023-04-17T19:28:27.533Z,11.14
2023-04-17T19:30:57.962Z,11.00
2023-04-17T19:33:26.005Z,10.85
2023-04-17T19:35:54.072Z,10.75
2023-04-17T19:38:22.083Z,10.67
2023-04-17T19:41:15.134Z,10.61
2023-04-17T19:43:49.652Z,10.55
2023-04-17T19:46:19.171Z,10.47
2023-04-17T19:48:49.597Z,10.37
2023-04-17T19:51:18.267Z,10.27
2023-04-17T19:53:47.812Z,10.16
2023-04-17T19:56:16.314Z,10.07
2023-04-17T19:58:44.835Z,10.03
2023-04-17T20:01:12.937Z,9.99
